Time;durP1;ratioP1;P1;durP2;ratioP2;P2;SDS_P1;SDS_P2;PMS_P1;PMS_P2;Temp;Humidity;BMP_temperature;BMP_pressure;BME280_temperature;BME280_humidity;BME280_pressure;Samples;Min_cycle;Max_cycle;Signal;HPM_P1;HPM_P2
2022/10/09 00:01:31;;;;;;;6.30;3.70;;;18.20;99.90;;;;;;4950498;28;20421;-70
2022/10/09 00:04:00;;;;;;;4.25;3.50;;;18.20;99.90;;;;;;4946623;29;21277;-72
2022/10/09 00:06:32;;;;;;;4.40;3.40;;;18.20;99.90;;;;;;4940417;29;20457;-72
2022/10/09 00:09:00;;;;;;;3.92;3.40;;;18.20;99.90;;;;;;4939139;28;20425;-72
2022/10/09 00:11:29;;;;;;;4.00;3.45;;;18.10;99.90;;;;;;4953364;28;20419;-72
2022/10/09 00:13:56;;;;;;;4.30;3.30;;;18.10;99.90;;;;;;4924267;29;20875;-73
2022/10/09 00:16:24;;;;;;;4.32;3.30;;;18.00;99.90;;;;;;4960340;28;20413;-72
2022/10/09 00:18:51;;;;;;;4.50;3.47;;;17.90;99.90;;;;;;4941280;28;20459;-72
2022/10/09 00:21:28;;;;;;;4.70;3.50;;;17.90;99.90;;;;;;4939723;28;20417;-72
2022/10/09 00:23:58;;;;;;;5.43;3.83;;;17.80;99.90;;;;;;4945788;28;20434;-72
2022/10/09 00:26:25;;;;;;;5.68;3.50;;;17.80;99.90;;;;;;4953472;28;21129;-72
2022/10/09 00:28:52;;;;;;;4.65;3.63;;;17.80;99.90;;;;;;4941484;29;20461;-72
2022/10/09 00:31:19;;;;;;;5.15;3.63;;;17.80;99.90;;;;;;4948268;29;20421;-72
2022/10/09 00:33:46;;;;;;;4.40;3.80;;;17.80;99.90;;;;;;4950793;29;20417;-72
2022/10/09 00:36:23;;;;;;;4.72;3.70;;;17.80;99.90;;;;;;4945825;29;20425;-72
2022/10/09 00:38:52;;;;;;;4.60;3.83;;;17.80;99.90;;;;;;4956204;28;20531;-72
2022/10/09 00:41:23;;;;;;;6.10;3.80;;;17.70;99.90;;;;;;4941142;29;20422;-72
2022/10/09 00:43:55;;;;;;;4.75;3.83;;;17.60;99.90;;;;;;4940886;29;20432;-72
2022/10/09 00:46:44;;;;;;;5.07;3.70;;;17.60;99.90;;;;;;4944901;29;20417;-72
2022/10/09 00:49:26;;;;;;;5.50;3.75;;;17.60;99.90;;;;;;4945540;29;20560;-72
2022/10/09 00:51:58;;;;;;;5.30;4.20;;;17.60;99.90;;;;;;4946773;29;20418;-72
2022/10/09 00:54:31;;;;;;;5.75;4.20;;;17.60;99.90;;;;;;4945513;29;20913;-72
2022/10/09 00:56:58;;;;;;;4.43;3.95;;;17.60;99.90;;;;;;4943620;28;20417;-72
2022/10/09 00:59:25;;;;;;;5.47;4.07;;;17.60;99.90;;;;;;4941250;28;20419;-72
2022/10/09 01:01:54;;;;;;;5.63;4.05;;;17.50;99.90;;;;;;4943501;28;20421;-72
2022/10/09 01:04:20;;;;;;;4.32;3.92;;;17.50;99.90;;;;;;4942155;29;20410;-72
2022/10/09 01:07:11;;;;;;;4.40;3.90;;;17.50;99.90;;;;;;4949487;28;20535;-71
2022/10/09 01:09:54;;;;;;;4.78;4.20;;;17.50;99.90;;;;;;4941611;29;20449;-71
2022/10/09 01:12:50;;;;;;;4.60;4.03;;;17.50;99.90;;;;;;4941843;28;20426;-71
2022/10/09 01:15:27;;;;;;;4.70;4.30;;;17.50;99.90;;;;;;4959302;28;20429;-71
2022/10/09 01:18:14;;;;;;;5.80;4.30;;;17.50;99.90;;;;;;4943185;29;21013;-71
2022/10/09 01:20:52;;;;;;;4.72;4.32;;;17.40;99.90;;;;;;4938929;29;20427;-71
2022/10/09 01:24:13;;;;;;;5.30;4.30;;;17.40;99.90;;;;;;4945293;28;20880;-72
2022/10/09 01:26:50;;;;;;;5.68;4.20;;;17.40;99.90;;;;;;4942250;28;20422;-71
2022/10/09 01:29:20;;;;;;;5.15;4.50;;;17.40;99.90;;;;;;4940435;29;20475;-71
2022/10/09 01:31:49;;;;;;;4.60;4.20;;;17.40;99.90;;;;;;4942844;28;20418;-71
2022/10/09 01:34:19;;;;;;;6.78;4.32;;;17.40;99.90;;;;;;4944756;29;21107;-71
2022/10/09 01:36:46;;;;;;;6.50;4.50;;;17.40;99.90;;;;;;4956532;28;20417;-71
2022/10/09 01:39:21;;;;;;;5.10;4.60;;;17.30;99.90;;;;;;4945339;28;20946;-71
2022/10/09 01:41:51;;;;;;;5.45;4.50;;;17.30;99.90;;;;;;4939853;29;20497;-71
2022/10/09 01:44:29;;;;;;;6.65;4.40;;;17.30;99.90;;;;;;4940957;28;20422;-72
2022/10/09 01:46:57;;;;;;;4.45;4.05;;;17.30;99.90;;;;;;4946335;29;20410;-71
2022/10/09 01:49:46;;;;;;;4.68;4.25;;;17.30;99.90;;;;;;4942061;29;20981;-72
2022/10/09 01:52:22;;;;;;;5.37;4.30;;;17.30;99.90;;;;;;4955888;28;20420;-71
2022/10/09 01:55:45;;;;;;;5.03;4.20;;;17.30;99.90;;;;;;4943843;29;20421;-71
2022/10/09 01:58:28;;;;;;;5.25;4.47;;;17.30;99.90;;;;;;4980187;28;20497;-71
2022/10/09 02:01:09;;;;;;;6.18;4.20;;;17.30;99.90;;;;;;4963139;28;20832;-71
2022/10/09 02:03:41;;;;;;;5.35;4.50;;;17.30;99.90;;;;;;4946838;29;20417;-71
2022/10/09 02:06:11;;;;;;;5.60;4.63;;;17.20;99.90;;;;;;4957434;28;20429;-72
2022/10/09 02:08:40;;;;;;;4.60;4.20;;;17.20;99.90;;;;;;4943291;28;21006;-71
2022/10/09 02:11:09;;;;;;;5.03;4.35;;;17.20;99.90;;;;;;4959932;28;20521;-72
2022/10/09 02:13:37;;;;;;;5.03;4.53;;;17.20;99.90;;;;;;4937461;28;20413;-72
2022/10/09 02:16:13;;;;;;;5.70;4.18;;;17.20;99.90;;;;;;4926716;29;20421;-71
2022/10/09 02:18:56;;;;;;;5.75;4.50;;;17.20;99.90;;;;;;4941478;29;20458;-71
2022/10/09 02:22:09;;;;;;;5.32;4.40;;;17.20;99.90;;;;;;4939405;29;20421;-71
2022/10/09 02:24:39;;;;;;;6.13;4.53;;;17.20;99.90;;;;;;4938638;28;20914;-71
2022/10/09 02:27:08;;;;;;;4.80;4.20;;;17.20;99.90;;;;;;4944218;28;20429;-71
2022/10/09 02:29:38;;;;;;;4.90;4.40;;;17.20;99.90;;;;;;4961662;28;20504;-71
2022/10/09 02:32:05;;;;;;;5.65;4.47;;;17.20;99.90;;;;;;4946183;28;20871;-71
2022/10/09 02:34:33;;;;;;;5.82;4.70;;;17.10;99.90;;;;;;4945434;29;20532;-72
2022/10/09 02:37:00;;;;;;;6.45;4.65;;;17.10;99.90;;;;;;4956128;28;20428;-71
2022/10/09 02:39:26;;;;;;;5.15;4.45;;;17.10;99.90;;;;;;4940697;28;20419;-71
2022/10/09 02:41:53;;;;;;;5.40;4.65;;;17.00;99.90;;;;;;4959625;28;20424;-71
2022/10/09 02:44:19;;;;;;;5.97;4.45;;;17.00;99.90;;;;;;4952806;28;20438;-72
2022/10/09 02:46:45;;;;;;;4.87;4.37;;;17.00;99.90;;;;;;4959393;28;20825;-72
2022/10/09 02:49:12;;;;;;;5.95;4.35;;;17.00;99.90;;;;;;4921918;29;20427;-71
2022/10/09 02:51:38;;;;;;;5.30;4.80;;;17.00;99.90;;;;;;4943440;29;20414;-72
2022/10/09 02:54:05;;;;;;;5.88;4.70;;;17.00;99.90;;;;;;4955245;28;20433;-71
2022/10/09 02:56:31;;;;;;;5.82;4.78;;;17.00;99.90;;;;;;4955468;28;20472;-71
2022/10/09 02:58:57;;;;;;;4.95;4.47;;;17.00;99.90;;;;;;4948087;28;20432;-71
2022/10/09 03:01:26;;;;;;;5.22;4.60;;;17.00;99.90;;;;;;4935279;29;20484;-71
2022/10/09 03:03:52;;;;;;;5.50;4.45;;;16.90;99.90;;;;;;4951390;28;20425;-72
2022/10/09 03:06:24;;;;;;;5.20;4.60;;;16.90;99.90;;;;;;4947538;28;20421;-71
2022/10/09 03:08:52;;;;;;;5.60;4.90;;;16.90;99.90;;;;;;4952245;28;20452;-71
2022/10/09 03:11:22;;;;;;;5.10;4.70;;;16.90;99.90;;;;;;4935551;29;20801;-71
2022/10/09 03:13:49;;;;;;;6.07;4.80;;;16.90;99.90;;;;;;4942664;29;20532;-71
2022/10/09 03:16:23;;;;;;;5.32;4.82;;;16.90;99.90;;;;;;4943386;29;20510;-71
2022/10/09 03:18:52;;;;;;;5.57;5.00;;;16.90;99.90;;;;;;4950995;28;20445;-71
2022/10/09 03:21:23;;;;;;;5.20;4.70;;;16.90;99.90;;;;;;4951269;28;20461;-71
2022/10/09 03:23:52;;;;;;;5.13;4.63;;;16.90;99.90;;;;;;4945852;28;20755;-71
2022/10/09 03:26:23;;;;;;;5.53;5.00;;;17.00;99.90;;;;;;4953218;28;20455;-72
2022/10/09 03:28:51;;;;;;;6.28;5.05;;;17.00;99.90;;;;;;4941598;28;20431;-71
2022/10/09 03:31:22;;;;;;;5.00;4.50;;;17.00;99.90;;;;;;4950151;29;20422;-71
2022/10/09 03:33:49;;;;;;;5.97;4.75;;;16.90;99.90;;;;;;4948829;29;20966;-71
2022/10/09 03:36:15;;;;;;;5.72;4.72;;;16.90;99.90;;;;;;4945435;28;20484;-71
2022/10/09 03:38:41;;;;;;;7.25;4.95;;;16.90;99.90;;;;;;4948771;29;20500;-71
2022/10/09 03:41:09;;;;;;;7.28;4.80;;;16.90;99.90;;;;;;4949789;28;20422;-71
2022/10/09 03:43:35;;;;;;;5.57;5.00;;;16.90;99.90;;;;;;4923367;29;20478;-71
2022/10/09 03:46:08;;;;;;;5.65;4.93;;;16.80;99.90;;;;;;4955770;28;20947;-72
2022/10/09 03:48:35;;;;;;;5.57;4.80;;;16.80;99.90;;;;;;4957961;28;20504;-71
2022/10/09 03:51:03;;;;;;;7.55;4.88;;;16.80;99.90;;;;;;4942930;28;21516;-71
2022/10/09 03:53:29;;;;;;;5.95;5.15;;;16.80;99.90;;;;;;4928755;29;20893;-71
2022/10/09 03:55:57;;;;;;;5.80;4.97;;;16.80;99.90;;;;;;4917553;29;20505;-71
2022/10/09 03:58:24;;;;;;;5.60;4.88;;;16.80;99.90;;;;;;4950694;28;21334;-71
2022/10/09 04:00:55;;;;;;;5.47;4.97;;;16.80;99.90;;;;;;4959940;28;20762;-71
2022/10/09 04:03:22;;;;;;;6.13;5.28;;;16.90;99.90;;;;;;4956862;28;20421;-71
2022/10/09 04:05:48;;;;;;;7.07;5.40;;;16.90;99.90;;;;;;4930528;29;20450;-71
2022/10/09 04:08:15;;;;;;;5.75;4.97;;;16.90;99.90;;;;;;4943963;29;20453;-71
2022/10/09 04:10:43;;;;;;;7.82;5.00;;;16.90;99.90;;;;;;4946209;29;20418;-71
2022/10/09 04:13:09;;;;;;;5.55;5.05;;;16.90;99.90;;;;;;4958469;28;20406;-71
2022/10/09 04:15:36;;;;;;;6.30;5.03;;;17.00;99.90;;;;;;4949034;28;20418;-71
2022/10/09 04:18:04;;;;;;;6.22;4.88;;;17.00;99.90;;;;;;4946939;28;20892;-71
2022/10/09 04:20:30;;;;;;;7.97;5.07;;;17.00;99.90;;;;;;4942286;29;20413;-71
2022/10/09 04:22:58;;;;;;;6.45;5.38;;;17.00;99.90;;;;;;4947476;28;20441;-71
2022/10/09 04:25:24;;;;;;;5.43;4.93;;;17.00;99.90;;;;;;4943307;29;21360;-71
2022/10/09 04:27:51;;;;;;;6.15;4.72;;;17.00;99.90;;;;;;4943100;28;20427;-71
2022/10/09 04:30:17;;;;;;;6.85;5.40;;;17.00;99.90;;;;;;4940797;29;20423;-71
2022/10/09 04:32:46;;;;;;;5.57;5.00;;;17.10;99.90;;;;;;4938858;29;20414;-71
2022/10/09 04:35:13;;;;;;;5.47;5.03;;;17.10;99.90;;;;;;4949682;28;20426;-71
2022/10/09 04:37:40;;;;;;;5.78;5.28;;;17.10;99.90;;;;;;4942775;29;20418;-71
2022/10/09 04:40:10;;;;;;;7.25;5.43;;;17.10;99.90;;;;;;4946941;29;20418;-71
2022/10/09 04:42:36;;;;;;;6.13;5.53;;;17.10;99.90;;;;;;4948034;29;20515;-71
2022/10/09 04:45:03;;;;;;;6.55;5.10;;;17.10;99.90;;;;;;4951595;28;20422;-71
2022/10/09 04:47:29;;;;;;;6.83;5.60;;;17.10;99.90;;;;;;4949893;28;20457;-71
2022/10/09 04:49:56;;;;;;;7.15;5.60;;;17.10;99.90;;;;;;4948001;29;20422;-71
2022/10/09 04:52:25;;;;;;;6.55;5.82;;;17.20;99.90;;;;;;4925364;29;20469;-71
2022/10/09 04:54:51;;;;;;;5.80;5.30;;;17.20;99.90;;;;;;4948160;29;20870;-71
2022/10/09 04:57:18;;;;;;;6.00;5.18;;;17.20;99.90;;;;;;4942024;29;20410;-71
2022/10/09 04:59:46;;;;;;;5.85;5.25;;;17.20;99.90;;;;;;4949562;29;20414;-71
2022/10/09 05:02:12;;;;;;;7.00;5.40;;;17.20;99.90;;;;;;4934645;28;20491;-72
2022/10/09 05:04:38;;;;;;;5.75;5.20;;;17.20;99.90;;;;;;4913740;29;20448;-71
2022/10/09 05:07:05;;;;;;;6.10;5.50;;;17.30;99.90;;;;;;4932315;29;20427;-71
2022/10/09 05:09:31;;;;;;;6.38;5.55;;;17.30;99.90;;;;;;4935985;28;20911;-71
2022/10/09 05:11:57;;;;;;;5.88;5.32;;;17.30;99.90;;;;;;4947920;29;20413;-71
2022/10/09 05:14:23;;;;;;;5.88;5.28;;;17.40;99.90;;;;;;4930976;29;20534;-71
2022/10/09 05:16:56;;;;;;;6.97;5.70;;;17.40;99.90;;;;;;4931070;29;20766;-71
2022/10/09 05:19:23;;;;;;;6.93;5.53;;;17.50;99.90;;;;;;4947952;28;20420;-71
2022/10/09 05:21:49;;;;;;;6.22;5.47;;;17.60;99.90;;;;;;4935312;29;20449;-71
2022/10/09 05:24:17;;;;;;;7.72;5.68;;;17.60;99.90;;;;;;4945342;28;20575;-71
2022/10/09 05:26:46;;;;;;;6.38;5.78;;;17.70;99.90;;;;;;4942566;29;20491;-72
2022/10/09 05:29:12;;;;;;;7.22;5.47;;;17.70;99.90;;;;;;4944951;29;20502;-71
2022/10/09 05:31:39;;;;;;;6.93;5.72;;;17.80;99.90;;;;;;4950438;28;20413;-71
2022/10/09 05:34:05;;;;;;;6.68;6.00;;;17.80;99.90;;;;;;4950297;28;20436;-71
2022/10/09 05:36:31;;;;;;;6.07;5.47;;;17.80;99.90;;;;;;4932085;29;20417;-71
2022/10/09 05:38:59;;;;;;;6.38;5.70;;;17.90;99.90;;;;;;4950148;28;20572;-71
2022/10/09 05:41:30;;;;;;;6.45;5.50;;;17.90;99.90;;;;;;4947401;28;20946;-71
2022/10/09 05:44:01;;;;;;;6.33;5.73;;;17.90;99.90;;;;;;4948501;29;20800;-71
2022/10/09 05:46:31;;;;;;;6.47;5.65;;;18.00;99.90;;;;;;4964255;28;20429;-71
2022/10/09 05:49:04;;;;;;;9.48;5.93;;;18.00;99.90;;;;;;4964041;28;20429;-72
2022/10/09 05:51:37;;;;;;;7.93;5.97;;;18.10;99.90;;;;;;4948346;29;20410;-71
2022/10/09 05:54:07;;;;;;;6.85;6.10;;;18.10;99.90;;;;;;4943294;28;20424;-71
2022/10/09 05:56:37;;;;;;;8.15;6.15;;;18.20;99.90;;;;;;4932005;29;20889;-71
2022/10/09 05:59:12;;;;;;;7.22;5.95;;;18.20;99.90;;;;;;4946621;29;20819;-71
2022/10/09 06:01:43;;;;;;;6.55;5.95;;;18.20;99.90;;;;;;4950060;28;20885;-71
2022/10/09 06:04:17;;;;;;;6.82;6.13;;;18.30;99.90;;;;;;4937486;29;20524;-71
2022/10/09 06:06:47;;;;;;;6.35;5.75;;;18.30;99.90;;;;;;4940047;29;20431;-71
2022/10/09 06:09:21;;;;;;;6.38;5.78;;;18.40;99.90;;;;;;4948442;29;21003;-71
2022/10/09 06:11:49;;;;;;;6.00;5.30;;;18.40;99.90;;;;;;4939160;28;20419;-71
2022/10/09 06:14:16;;;;;;;6.38;5.78;;;18.50;99.90;;;;;;4947185;29;20429;-71
2022/10/09 06:16:44;;;;;;;6.72;5.50;;;18.60;99.90;;;;;;4932242;29;20452;-71
2022/10/09 06:19:15;;;;;;;6.28;5.60;;;18.60;99.90;;;;;;4949086;28;20422;-71
2022/10/09 06:21:43;;;;;;;7.03;5.35;;;18.60;99.90;;;;;;4948822;28;21020;-69
2022/10/09 06:24:22;;;;;;;6.30;5.30;;;18.70;99.90;;;;;;4942549;28;20526;-71
2022/10/09 06:26:48;;;;;;;7.55;5.40;;;18.70;99.90;;;;;;4943740;29;20420;-71
2022/10/09 06:29:15;;;;;;;8.00;5.43;;;18.80;99.90;;;;;;4948071;29;20480;-71
2022/10/09 06:31:41;;;;;;;7.22;5.57;;;18.90;99.90;;;;;;4948722;28;20509;-71
2022/10/09 06:34:09;;;;;;;6.87;5.73;;;18.90;99.90;;;;;;4946300;29;20418;-71
2022/10/09 06:36:36;;;;;;;7.45;5.53;;;19.00;99.90;;;;;;4945760;28;20448;-69
2022/10/09 06:39:06;;;;;;;5.70;5.20;;;19.00;99.90;;;;;;4950817;28;20422;-71
2022/10/09 06:41:34;;;;;;;7.38;5.45;;;19.10;99.90;;;;;;4937372;29;20403;-71
2022/10/09 06:44:04;;;;;;;5.20;4.70;;;19.10;99.90;;;;;;4949946;29;20908;-72
2022/10/09 06:46:38;;;;;;;7.97;5.57;;;19.20;99.90;;;;;;4943001;28;20413;-71
2022/10/09 06:49:07;;;;;;;6.03;5.10;;;19.30;99.90;;;;;;4934644;29;20421;-71
2022/10/09 06:51:34;;;;;;;7.73;5.13;;;19.30;99.90;;;;;;4951251;28;20429;-71
2022/10/09 06:54:08;;;;;;;5.50;5.00;;;19.40;99.90;;;;;;4947726;29;20964;-71
2022/10/09 06:56:34;;;;;;;6.28;4.90;;;19.50;99.90;;;;;;4945690;29;20416;-72
2022/10/09 06:59:03;;;;;;;6.70;4.60;;;19.50;99.90;;;;;;4963866;28;20433;-71
2022/10/09 07:01:31;;;;;;;5.30;4.80;;;19.60;99.90;;;;;;4949909;28;20501;-71
2022/10/09 07:04:09;;;;;;;6.78;4.80;;;19.60;99.90;;;;;;4956120;28;20824;-71
2022/10/09 07:06:43;;;;;;;7.80;5.00;;;19.60;99.90;;;;;;4948920;28;20409;-71
2022/10/09 07:09:12;;;;;;;6.03;4.72;;;19.60;99.90;;;;;;4966084;28;20428;-71
2022/10/09 07:11:42;;;;;;;5.50;4.50;;;19.70;99.90;;;;;;4944177;29;20499;-71
2022/10/09 07:14:11;;;;;;;6.05;4.68;;;19.80;99.90;;;;;;4953751;28;20425;-72
2022/10/09 07:16:44;;;;;;;9.05;4.88;;;19.80;99.90;;;;;;4950258;28;20432;-72
2022/10/09 07:19:12;;;;;;;5.05;4.38;;;19.90;99.90;;;;;;4947753;29;20426;-71
2022/10/09 07:21:41;;;;;;;5.55;4.50;;;19.90;99.90;;;;;;4950505;29;20484;-71
2022/10/09 07:24:09;;;;;;;4.93;4.43;;;20.00;99.90;;;;;;4966555;28;20504;-72
2022/10/09 07:26:39;;;;;;;5.23;4.30;;;20.10;99.90;;;;;;4942762;28;20441;-71
2022/10/09 07:29:11;;;;;;;6.18;4.40;;;20.10;99.90;;;;;;4941280;28;20503;-71
2022/10/09 07:31:38;;;;;;;5.53;4.25;;;20.20;99.90;;;;;;4946355;28;20527;-72
2022/10/09 07:34:05;;;;;;;5.18;4.10;;;20.30;99.90;;;;;;4950893;28;20413;-71
2022/10/09 07:36:32;;;;;;;6.20;3.90;;;20.40;99.90;;;;;;4932744;29;20444;-71
2022/10/09 07:39:03;;;;;;;6.95;4.28;;;20.40;99.90;;;;;;4948730;29;20424;-71
2022/10/09 07:41:30;;;;;;;6.13;4.30;;;20.50;99.90;;;;;;4949664;28;20422;-72
2022/10/09 07:43:58;;;;;;;5.55;4.05;;;20.70;99.90;;;;;;4950738;29;20497;-72
2022/10/09 07:46:27;;;;;;;4.73;4.23;;;20.70;99.90;;;;;;4950419;29;20740;-71
2022/10/09 07:48:55;;;;;;;4.55;4.00;;;20.80;99.90;;;;;;4947706;28;20433;-71
2022/10/09 07:51:26;;;;;;;5.47;3.88;;;20.80;99.90;;;;;;4965650;28;20453;-71
2022/10/09 07:53:53;;;;;;;6.00;4.00;;;20.90;99.90;;;;;;4950407;28;20547;-71
2022/10/09 07:56:22;;;;;;;5.10;4.05;;;20.80;99.90;;;;;;4946714;28;20432;-72
2022/10/09 07:59:04;;;;;;;6.28;4.40;;;20.80;99.90;;;;;;4942118;28;20431;-71
2022/10/09 08:01:33;;;;;;;5.65;3.97;;;20.90;99.90;;;;;;4964660;28;20434;-71
2022/10/09 08:04:00;;;;;;;7.25;3.88;;;21.00;99.90;;;;;;4950730;28;20428;-71
2022/10/09 08:06:28;;;;;;;6.30;4.30;;;21.20;99.90;;;;;;4946892;28;20439;-72
2022/10/09 08:09:00;;;;;;;5.35;4.35;;;21.20;99.90;;;;;;4950104;28;20421;-72
2022/10/09 08:11:28;;;;;;;6.60;4.28;;;21.30;99.90;;;;;;4949853;28;20426;-72
2022/10/09 08:13:55;;;;;;;5.35;3.95;;;21.40;99.90;;;;;;4947803;29;20564;-72
2022/10/09 08:16:24;;;;;;;8.55;4.38;;;21.40;99.90;;;;;;4950322;28;20484;-71
2022/10/09 08:18:59;;;;;;;5.80;3.90;;;21.30;99.90;;;;;;4949841;29;20454;-72
2022/10/09 08:21:27;;;;;;;5.18;3.67;;;21.30;99.90;;;;;;4950586;28;20418;-72
2022/10/09 08:23:56;;;;;;;4.20;3.70;;;21.30;99.90;;;;;;4962967;28;20488;-71
2022/10/09 08:26:26;;;;;;;4.07;3.67;;;21.40;99.90;;;;;;4943806;29;20426;-71
2022/10/09 08:28:56;;;;;;;4.63;3.70;;;21.60;99.90;;;;;;4939315;28;20448;-72
2022/10/09 08:31:25;;;;;;;4.30;3.50;;;21.60;99.90;;;;;;4942811;28;20510;-71
2022/10/09 08:33:54;;;;;;;6.13;3.70;;;21.60;99.90;;;;;;4947177;29;20883;-72
2022/10/09 08:36:22;;;;;;;6.10;3.90;;;21.70;99.90;;;;;;4943423;29;20940;-72
2022/10/09 08:38:50;;;;;;;8.13;3.80;;;21.60;99.90;;;;;;4943228;29;20456;-72
2022/10/09 08:41:32;;;;;;;5.03;3.53;;;21.50;99.90;;;;;;4947966;29;20422;-71
2022/10/09 08:44:12;;;;;;;6.55;3.72;;;21.60;99.90;;;;;;4946862;28;21496;-72
2022/10/09 08:47:03;;;;;;;6.55;3.80;;;21.70;99.90;;;;;;4943231;29;20468;-72
2022/10/09 08:49:57;;;;;;;4.95;3.60;;;22.00;99.90;;;;;;4928794;29;20409;-71
2022/10/09 08:53:05;;;;;;;6.55;3.70;;;22.10;99.90;;;;;;4943987;29;20418;-71
2022/10/09 08:55:53;;;;;;;5.32;3.78;;;22.30;99.90;;;;;;4948923;28;20417;-72
2022/10/09 08:58:21;;;;;;;5.78;3.60;;;22.40;99.90;;;;;;4939085;29;20457;-73
2022/10/09 09:01:16;;;;;;;5.17;3.80;;;22.30;99.90;;;;;;4945134;28;20995;-72
2022/10/09 09:04:06;;;;;;;4.93;3.50;;;22.50;99.90;;;;;;4946179;29;20421;-73
2022/10/09 09:07:16;;;;;;;5.18;3.40;;;22.60;99.90;;;;;;4945907;29;20425;-72
2022/10/09 09:10:15;;;;;;;5.25;3.40;;;22.60;99.90;;;;;;4949946;28;20429;-72
2022/10/09 09:12:56;;;;;;;4.57;3.25;;;22.60;99.90;;;;;;4948479;28;20414;-72
2022/10/09 09:15:28;;;;;;;6.17;3.57;;;22.70;99.90;;;;;;4948397;29;20918;-72
2022/10/09 09:19:07;;;;;;;5.13;3.40;;;22.70;99.90;;;;;;4929053;29;20517;-73
2022/10/09 09:21:53;;;;;;;4.63;3.42;;;22.90;99.90;;;;;;4935624;28;20906;-73
2022/10/09 09:24:47;;;;;;;6.28;3.50;;;22.90;99.90;;;;;;4947566;29;20933;-73
2022/10/09 09:27:19;;;;;;;7.20;3.50;;;23.10;99.90;;;;;;4942789;29;21131;-73
2022/10/09 09:30:02;;;;;;;4.50;3.40;;;23.30;99.90;;;;;;4942137;29;20911;-73
2022/10/09 09:32:31;;;;;;;7.72;3.30;;;23.30;99.90;;;;;;4945417;29;20425;-73
2022/10/09 09:35:27;;;;;;;5.00;3.20;;;23.40;99.90;;;;;;4928190;28;20450;-73
2022/10/09 09:37:54;;;;;;;4.87;3.07;;;23.60;99.90;;;;;;4941072;28;20441;-73
2022/10/09 09:40:34;;;;;;;4.85;3.10;;;23.60;99.90;;;;;;4941619;28;20421;-73
2022/10/09 09:43:04;;;;;;;4.85;2.95;;;23.80;99.90;;;;;;4957533;28;20450;-73
2022/10/09 09:45:34;;;;;;;6.15;2.90;;;23.70;99.90;;;;;;4944285;28;20449;-73
2022/10/09 09:48:31;;;;;;;3.50;2.78;;;23.80;99.90;;;;;;4945673;29;20199;-73
2022/10/09 09:51:01;;;;;;;4.30;2.80;;;23.80;99.90;;;;;;4955799;28;20227;-73
2022/10/09 09:53:41;;;;;;;7.88;3.28;;;23.90;99.90;;;;;;4947153;28;20203;-73
2022/10/09 09:56:12;;;;;;;4.93;2.80;;;23.90;99.90;;;;;;4950435;28;20204;-73
2022/10/09 09:58:49;;;;;;;6.90;2.70;;;24.00;99.90;;;;;;4949285;29;20226;-73
2022/10/09 10:01:25;;;;;;;4.55;2.70;;;24.10;99.90;;;;;;4942773;28;20190;-74
2022/10/09 10:04:02;;;;;;;5.32;3.00;;;24.00;99.90;;;;;;4934295;29;20187;-73
2022/10/09 10:06:43;;;;;;;3.53;2.58;;;24.20;99.90;;;;;;4947299;29;20186;-73
2022/10/09 10:09:18;;;;;;;4.65;3.08;;;24.30;99.90;;;;;;4943997;28;20186;-73
2022/10/09 10:11:54;;;;;;;4.47;2.95;;;24.20;99.90;;;;;;4950094;28;20229;-73
2022/10/09 10:14:25;;;;;;;5.25;2.70;;;24.40;99.90;;;;;;4946217;29;20191;-73
2022/10/09 10:16:55;;;;;;;3.78;2.85;;;24.60;99.90;;;;;;4948167;28;20230;-73
2022/10/09 10:19:23;;;;;;;6.53;2.55;;;24.70;99.90;;;;;;4948019;29;20225;-73
2022/10/09 10:22:24;;;;;;;6.43;2.80;;;24.80;99.90;;;;;;4948485;28;20190;-74
2022/10/09 10:24:57;;;;;;;3.83;2.40;;;24.90;99.90;;;;;;4949068;29;20706;-73
2022/10/09 10:27:35;;;;;;;3.65;2.50;;;25.00;99.90;;;;;;4941345;29;20288;-74
2022/10/09 10:30:06;;;;;;;5.97;2.60;;;25.30;99.90;;;;;;4945076;29;20261;-73
2022/10/09 10:32:57;;;;;;;3.88;2.53;;;25.60;99.90;;;;;;4924122;28;20289;-74
2022/10/09 10:35:37;;;;;;;3.53;2.70;;;25.70;99.90;;;;;;4954215;28;20321;-72
2022/10/09 10:38:25;;;;;;;5.13;2.40;;;25.70;99.90;;;;;;4945745;28;20294;-72
2022/10/09 10:41:24;;;;;;;4.60;2.40;;;25.70;99.90;;;;;;4949745;28;20195;-72
2022/10/09 10:44:02;;;;;;;3.22;2.50;;;25.70;99.90;;;;;;4946024;28;20229;-73
2022/10/09 10:46:48;;;;;;;6.63;2.80;;;25.70;99.90;;;;;;4948184;29;20533;-72
2022/10/09 10:49:25;;;;;;;4.13;2.47;;;25.80;99.90;;;;;;4945056;28;20201;-71
2022/10/09 10:52:36;;;;;;;5.85;2.35;;;25.70;99.90;;;;;;4960809;28;20288;-71
2022/10/09 10:55:51;;;;;;;5.93;2.70;;;25.40;99.90;;;;;;4943059;28;20297;-71
2022/10/09 10:58:31;;;;;;;5.47;2.22;;;25.10;99.90;;;;;;4945336;28;20229;-72
2022/10/09 11:01:34;;;;;;;4.03;2.42;;;25.10;99.90;;;;;;4949926;28;20211;-71
2022/10/09 11:04:33;;;;;;;5.38;2.78;;;25.00;99.90;;;;;;4943251;28;22224;-72
2022/10/09 11:07:56;;;;;;;5.32;2.58;;;24.90;99.90;;;;;;4945538;29;20194;-72
2022/10/09 11:10:29;;;;;;;3.35;2.42;;;24.90;99.90;;;;;;4939661;29;20214;-72
2022/10/09 11:13:31;;;;;;;6.95;2.67;;;25.00;99.90;;;;;;4938454;29;20235;-72
2022/10/09 11:16:27;;;;;;;4.85;2.75;;;25.00;99.90;;;;;;4954618;28;20284;-72
2022/10/09 11:19:37;;;;;;;3.75;2.60;;;25.00;99.90;;;;;;4948603;29;20226;-72
2022/10/09 11:22:41;;;;;;;4.47;2.83;;;25.00;99.90;;;;;;4949737;28;20178;-72
2022/10/09 11:25:38;;;;;;;6.40;3.13;;;25.00;99.90;;;;;;4958752;28;20556;-72
2022/10/09 11:28:13;;;;;;;9.73;2.90;;;24.90;99.90;;;;;;4935846;29;20186;-71
2022/10/09 11:31:01;;;;;;;3.00;2.70;;;24.80;99.90;;;;;;4941895;29;20281;-71
2022/10/09 11:34:09;;;;;;;3.33;2.60;;;24.90;99.90;;;;;;4941549;28;20197;-72
2022/10/09 11:36:42;;;;;;;4.40;2.60;;;24.80;99.90;;;;;;4955963;28;20593;-72
2022/10/09 11:39:25;;;;;;;3.55;2.55;;;24.80;99.90;;;;;;4950211;29;20313;-72
2022/10/09 11:41:54;;;;;;;6.82;2.75;;;24.80;99.90;;;;;;4948951;28;20237;-72
2022/10/09 11:44:54;;;;;;;4.53;2.83;;;24.70;99.90;;;;;;4933902;29;20198;-72
2022/10/09 11:48:28;;;;;;;5.60;3.05;;;24.70;99.90;;;;;;4951938;29;20187;-72
2022/10/09 11:51:10;;;;;;;4.70;2.72;;;24.70;99.90;;;;;;4932209;29;20305;-71
2022/10/09 11:53:38;;;;;;;5.72;2.58;;;24.70;99.90;;;;;;4957509;28;20199;-71
2022/10/09 11:56:30;;;;;;;5.22;2.55;;;24.70;99.90;;;;;;4950028;29;20218;-73
2022/10/09 11:59:05;;;;;;;4.97;2.50;;;24.70;99.90;;;;;;4949455;28;20219;-72
2022/10/09 12:01:41;;;;;;;8.27;3.03;;;24.70;99.90;;;;;;4944219;29;20198;-73
2022/10/09 12:04:31;;;;;;;8.57;2.83;;;24.60;99.90;;;;;;4945448;28;20282;-72
2022/10/09 12:07:08;;;;;;;5.25;2.60;;;24.70;99.90;;;;;;4958134;28;20182;-72
2022/10/09 12:09:47;;;;;;;2.78;2.53;;;24.70;99.90;;;;;;4964496;28;20194;-72
2022/10/09 12:12:17;;;;;;;4.10;2.75;;;24.70;99.90;;;;;;4940703;29;20203;-72
2022/10/09 12:14:49;;;;;;;4.72;2.55;;;24.70;99.90;;;;;;4940298;29;20198;-72
2022/10/09 12:17:22;;;;;;;5.13;2.90;;;24.70;99.90;;;;;;4964232;28;20250;-72
2022/10/09 12:20:18;;;;;;;3.90;2.30;;;24.70;99.90;;;;;;4947557;29;20230;-72
2022/10/09 12:22:54;;;;;;;4.85;2.33;;;24.70;99.90;;;;;;4962289;28;20195;-72
2022/10/09 12:25:44;;;;;;;2.58;2.30;;;24.60;99.90;;;;;;4948408;28;20266;-72
2022/10/09 12:28:36;;;;;;;3.80;2.80;;;24.60;99.90;;;;;;4960658;28;20233;-72
2022/10/09 12:31:16;;;;;;;6.32;2.50;;;24.50;99.90;;;;;;4947508;28;20210;-72
2022/10/09 12:33:55;;;;;;;2.72;2.40;;;24.40;99.90;;;;;;4948898;28;20517;-72
2022/10/09 12:36:27;;;;;;;2.78;2.55;;;24.40;99.90;;;;;;4944512;28;20226;-72
2022/10/09 12:38:54;;;;;;;4.72;2.47;;;24.40;99.90;;;;;;4948508;29;20223;-72
2022/10/09 12:41:29;;;;;;;4.55;2.50;;;24.30;99.90;;;;;;4955786;28;20275;-72
2022/10/09 12:43:57;;;;;;;5.43;2.75;;;24.30;99.90;;;;;;4934365;29;20285;-72
2022/10/09 12:46:38;;;;;;;4.18;2.38;;;24.30;99.90;;;;;;4948659;29;20190;-73
2022/10/09 12:49:19;;;;;;;2.50;2.30;;;24.20;99.90;;;;;;4964789;28;20276;-72
2022/10/09 12:51:56;;;;;;;2.63;2.25;;;24.20;99.90;;;;;;4948761;29;20190;-72
2022/10/09 12:54:26;;;;;;;4.70;2.45;;;24.10;99.90;;;;;;4947268;29;20205;-70
2022/10/09 12:56:56;;;;;;;7.05;2.75;;;24.10;99.90;;;;;;4948322;29;20517;-72
2022/10/09 12:59:26;;;;;;;3.70;2.63;;;24.10;99.90;;;;;;4960976;28;20687;-72
2022/10/09 13:01:59;;;;;;;4.50;2.72;;;24.10;99.90;;;;;;4947069;28;20638;-70
2022/10/09 13:04:30;;;;;;;3.13;2.60;;;24.10;99.90;;;;;;4959060;28;20191;-72
2022/10/09 13:07:05;;;;;;;4.90;2.80;;;24.10;99.90;;;;;;4944176;28;20202;-73
2022/10/09 13:09:39;;;;;;;9.70;3.15;;;24.10;99.90;;;;;;4947723;28;20337;-71
2022/10/09 13:12:26;;;;;;;3.30;3.00;;;24.10;99.90;;;;;;4946205;28;20194;-72
2022/10/09 13:14:56;;;;;;;3.33;2.90;;;24.00;99.90;;;;;;4930690;29;20704;-72
2022/10/09 13:17:36;;;;;;;6.53;3.13;;;23.90;99.90;;;;;;4945510;29;20226;-72
2022/10/09 13:20:29;;;;;;;3.90;2.83;;;23.90;99.90;;;;;;4941500;28;20278;-71
2022/10/09 13:23:02;;;;;;;5.13;3.13;;;23.70;99.90;;;;;;4935411;28;20191;-72
2022/10/09 13:25:37;;;;;;;4.50;3.20;;;23.70;99.90;;;;;;4947769;28;20194;-72
2022/10/09 13:28:04;;;;;;;6.28;3.40;;;23.60;99.90;;;;;;4941953;29;20198;-72